Orbital elements of FENGYUN 1C DEB
| Launched | 9 May 1999 |
| Flight ended | – |
| Launch site | Taiyuan Space Center, PRC |
| Owner | People's Republic of China |
| NORAD ID | 31372 |
| Date fetched |
Epoch osculation |
Inc. [°] |
Ecc. | RA asc node [hr] |
Arg Peri. [°] |
Mean anom [°] |
Mean motion [rev/day] |
Abs. mag |
| Date fetched |
Epoch osculation |
Inc. [°] |
Ecc. | RA asc node [hr] |
Arg Peri. [°] |
Mean anom [°] |
Mean motion [rev/day] |
Abs. mag |
| 2026 May 05 17:57 | 2026 May 02 22:58:07 | 99.3780 | 0.00337 | 8.6084 | 35.3687 | 324.9716 | 14.27725 | – |
| 2026 May 04 17:57 | 2026 Apr 29 05:49:33 | 99.3781 | 0.00340 | 8.3428 | 45.5317 | 324.9716 | 14.27725 | – |
| 2026 May 03 17:57 | 2026 Apr 29 05:49:33 | 99.3781 | 0.00340 | 8.3428 | 45.5317 | 324.9716 | 14.27725 | – |
| 2026 May 02 17:57 | 2026 Apr 29 05:49:33 | 99.3781 | 0.00340 | 8.3428 | 45.5317 | 324.9716 | 14.27725 | – |
| 2026 May 01 17:56 | 2026 Apr 29 05:49:33 | 99.3781 | 0.00340 | 8.3428 | 45.5317 | 324.9716 | 14.27725 | – |
| 2026 Apr 30 17:56 | 2026 Apr 29 05:49:33 | 99.3781 | 0.00340 | 8.3428 | 45.5317 | 324.9716 | 14.27725 | – |
| 2026 Apr 29 17:57 | 2026 Apr 24 11:27:06 | 99.3793 | 0.00343 | 8.0019 | 58.4348 | 324.9716 | 14.27725 | – |
| 2026 Apr 28 17:56 | 2026 Apr 24 11:27:06 | 99.3793 | 0.00343 | 8.0019 | 58.4348 | 324.9716 | 14.27725 | – |
| 2026 Apr 27 17:58 | 2026 Apr 24 11:27:06 | 99.3793 | 0.00343 | 8.0019 | 58.4348 | 324.9716 | 14.27725 | – |
| 2026 Apr 26 17:58 | 2026 Apr 24 11:27:06 | 99.3793 | 0.00343 | 8.0019 | 58.4348 | 324.9716 | 14.27725 | – |
| 2026 Apr 25 17:58 | 2026 Apr 24 11:27:06 | 99.3793 | 0.00343 | 8.0019 | 58.4348 | 324.9716 | 14.27725 | – |
| 2026 Apr 24 17:59 | 2026 Apr 24 11:27:06 | 99.3793 | 0.00343 | 8.0019 | 58.4348 | 324.9716 | 14.27725 | – |
| 2026 Apr 23 17:57 | 2026 Apr 17 23:01:28 | 99.3788 | 0.00346 | 7.5357 | 75.9524 | 324.9716 | 14.27725 | – |
| 2026 Apr 22 17:57 | 2026 Apr 17 23:01:28 | 99.3788 | 0.00346 | 7.5357 | 75.9524 | 324.9716 | 14.27725 | – |
| 2026 Apr 21 17:57 | 2026 Apr 17 23:01:28 | 99.3788 | 0.00346 | 7.5357 | 75.9524 | 324.9716 | 14.27725 | – |
| 2026 Apr 20 17:57 | 2026 Apr 17 23:01:28 | 99.3788 | 0.00346 | 7.5357 | 75.9524 | 324.9716 | 14.27725 | – |
| 2026 Apr 19 17:58 | 2026 Apr 17 23:01:28 | 99.3788 | 0.00346 | 7.5357 | 75.9524 | 324.9716 | 14.27725 | – |
| 2026 Apr 18 17:56 | 2026 Apr 12 23:35:58 | 99.3790 | 0.00346 | 7.1798 | 89.5289 | 324.9716 | 14.27725 | – |
| 2026 Apr 16 17:57 | 2026 Apr 12 23:35:58 | 99.3790 | 0.00346 | 7.1798 | 89.5289 | 324.9716 | 14.27725 | – |
| 2026 Apr 14 17:57 | 2026 Apr 12 23:35:58 | 99.3790 | 0.00346 | 7.1798 | 89.5289 | 324.9716 | 14.27725 | – |
| 2026 Apr 13 17:57 | 2026 Apr 12 23:35:58 | 99.3790 | 0.00346 | 7.1798 | 89.5289 | 324.9716 | 14.27725 | – |
| 2026 Apr 12 17:57 | 2026 Apr 08 11:56:51 | 99.3799 | 0.00345 | 6.8590 | 101.4187 | 324.9716 | 14.27725 | – |
| 2026 Apr 11 17:57 | 2026 Apr 08 11:56:51 | 99.3799 | 0.00345 | 6.8590 | 101.4187 | 324.9716 | 14.27725 | – |
| 2026 Apr 10 17:58 | 2026 Apr 08 11:56:51 | 99.3799 | 0.00345 | 6.8590 | 101.4187 | 324.9716 | 14.27725 | – |
| 2026 Apr 09 18:01 | 2026 Apr 08 11:56:51 | 99.3799 | 0.00345 | 6.8590 | 101.4187 | 324.9716 | 14.27725 | – |
| 2026 Apr 08 17:57 | 2026 Apr 08 11:56:51 | 99.3799 | 0.00345 | 6.8590 | 101.4187 | 324.9716 | 14.27725 | – |